Terminal Aerodrome Forecast
Issued by NWS Goodland, KS

Home | Current Version | Previous Version | Text Only | Print | Product List | Glossary On
Versions: 1 2 3 4 5 6 7 8 9 10 11 12 13 14
000
FTUS43 KGLD 291720
TAFGLD
TAF
KGLD 291720Z 2918/3018 06012G20KT P6SM -RA OVC008
     FM300300 01011KT P6SM -SHRA OVC007
     FM300900 36012G20KT P6SM VCSH OVC005
     FM301500 33015G25KT P6SM VCSH OVC007=

USA.gov is the U.S. government's official web portal to all federal, state and local government web resources and services.